sensor_id;sensor_type;location;lat;lon;timestamp;pressure;altitude;pressure_sealevel;temperature;humidity
76297;BME280;65104;52.994;6.552;2022-11-20T00:01:20;101399.72;;;-1.56;88.83
76297;BME280;65104;52.994;6.552;2022-11-20T00:03:46;101396.03;;;-1.49;89.97
76297;BME280;65104;52.994;6.552;2022-11-20T00:06:14;101388.19;;;-1.30;89.60
76297;BME280;65104;52.994;6.552;2022-11-20T00:08:40;101395.19;;;-1.38;89.21
76297;BME280;65104;52.994;6.552;2022-11-20T00:11:08;101389.72;;;-1.44;89.12
76297;BME280;65104;52.994;6.552;2022-11-20T00:13:34;101398.03;;;-1.45;89.58
76297;BME280;65104;52.994;6.552;2022-11-20T00:16:01;101402.06;;;-1.47;88.86
76297;BME280;65104;52.994;6.552;2022-11-20T00:18:27;101408.63;;;-1.49;89.88
76297;BME280;65104;52.994;6.552;2022-11-20T00:20:52;101409.72;;;-1.45;89.16
76297;BME280;65104;52.994;6.552;2022-11-20T00:23:18;101401.41;;;-1.44;89.71
76297;BME280;65104;52.994;6.552;2022-11-20T00:25:43;101393.44;;;-1.39;89.30
76297;BME280;65104;52.994;6.552;2022-11-20T00:28:09;101398.91;;;-1.33;88.70
76297;BME280;65104;52.994;6.552;2022-11-20T00:30:34;101391.38;;;-1.33;88.92
76297;BME280;65104;52.994;6.552;2022-11-20T00:32:59;101395.75;;;-1.30;88.43
76297;BME280;65104;52.994;6.552;2022-11-20T00:35:25;101390.84;;;-1.29;89.35
76297;BME280;65104;52.994;6.552;2022-11-20T00:37:50;101400.59;;;-1.22;88.54
76297;BME280;65104;52.994;6.552;2022-11-20T00:40:16;101408.72;;;-1.26;89.33
76297;BME280;65104;52.994;6.552;2022-11-20T00:42:41;101395.31;;;-1.25;89.52
76297;BME280;65104;52.994;6.552;2022-11-20T00:45:06;101401.25;;;-1.24;88.91
76297;BME280;65104;52.994;6.552;2022-11-20T00:47:32;101399.72;;;-1.22;88.52
76297;BME280;65104;52.994;6.552;2022-11-20T00:49:57;101391.53;;;-1.20;88.52
76297;BME280;65104;52.994;6.552;2022-11-20T00:52:23;101396.00;;;-1.16;88.66
76297;BME280;65104;52.994;6.552;2022-11-20T00:54:48;101398.97;;;-1.21;88.44
76297;BME280;65104;52.994;6.552;2022-11-20T00:57:13;101402.59;;;-1.18;88.29
76297;BME280;65104;52.994;6.552;2022-11-20T00:59:39;101389.81;;;-1.09;87.65
76297;BME280;65104;52.994;6.552;2022-11-20T01:02:04;101384.28;;;-1.15;87.74
76297;BME280;65104;52.994;6.552;2022-11-20T01:04:30;101382.88;;;-1.11;86.83
76297;BME280;65104;52.994;6.552;2022-11-20T01:06:55;101384.41;;;-1.14;88.30
76297;BME280;65104;52.994;6.552;2022-11-20T01:09:20;101381.13;;;-1.13;87.25
76297;BME280;65104;52.994;6.552;2022-11-20T01:11:46;101372.38;;;-1.18;87.79
76297;BME280;65104;52.994;6.552;2022-11-20T01:14:15;101367.31;;;-1.18;88.92
76297;BME280;65104;52.994;6.552;2022-11-20T01:16:43;101360.97;;;-1.13;88.91
76297;BME280;65104;52.994;6.552;2022-11-20T01:19:12;101358.88;;;-1.06;88.86
76297;BME280;65104;52.994;6.552;2022-11-20T01:21:40;101355.16;;;-1.11;88.56
76297;BME280;65104;52.994;6.552;2022-11-20T01:24:07;101352.13;;;-1.07;88.34
76297;BME280;65104;52.994;6.552;2022-11-20T01:26:35;101344.63;;;-1.06;88.58
76297;BME280;65104;52.994;6.552;2022-11-20T01:29:02;101341.25;;;-1.06;87.41
76297;BME280;65104;52.994;6.552;2022-11-20T01:31:29;101343.00;;;-1.05;87.96
76297;BME280;65104;52.994;6.552;2022-11-20T01:33:56;101339.59;;;-1.06;87.50
76297;BME280;65104;52.994;6.552;2022-11-20T01:36:25;101340.84;;;-1.01;87.69
76297;BME280;65104;52.994;6.552;2022-11-20T01:38:52;101335.78;;;-1.01;87.70
76297;BME280;65104;52.994;6.552;2022-11-20T01:41:18;101343.34;;;-1.01;87.73
76297;BME280;65104;52.994;6.552;2022-11-20T01:44:04;101342.13;;;-0.94;88.02
76297;BME280;65104;52.994;6.552;2022-11-20T01:46:34;101335.34;;;-0.95;86.97
76297;BME280;65104;52.994;6.552;2022-11-20T01:51:37;101339.63;;;-0.94;87.81
76297;BME280;65104;52.994;6.552;2022-11-20T01:54:09;101335.69;;;-0.91;86.21
76297;BME280;65104;52.994;6.552;2022-11-20T01:56:38;101335.00;;;-0.88;86.01
76297;BME280;65104;52.994;6.552;2022-11-20T01:59:08;101334.81;;;-0.91;86.49
76297;BME280;65104;52.994;6.552;2022-11-20T02:01:35;101325.81;;;-0.76;86.41
76297;BME280;65104;52.994;6.552;2022-11-20T02:04:02;101325.81;;;-0.76;85.20
76297;BME280;65104;52.994;6.552;2022-11-20T02:06:40;101338.00;;;-0.82;86.73
76297;BME280;65104;52.994;6.552;2022-11-20T02:09:07;101325.03;;;-0.87;85.67
76297;BME280;65104;52.994;6.552;2022-11-20T02:11:32;101319.66;;;-0.68;85.36
76297;BME280;65104;52.994;6.552;2022-11-20T02:13:59;101318.25;;;-0.76;85.85
76297;BME280;65104;52.994;6.552;2022-11-20T02:16:33;101316.25;;;-0.80;84.64
76297;BME280;65104;52.994;6.552;2022-11-20T02:19:01;101327.44;;;-0.88;85.67
76297;BME280;65104;52.994;6.552;2022-11-20T02:21:35;101317.06;;;-0.81;85.44
76297;BME280;65104;52.994;6.552;2022-11-20T02:24:12;101309.28;;;-0.84;85.23
76297;BME280;65104;52.994;6.552;2022-11-20T02:26:51;101301.81;;;-0.83;84.79
76297;BME280;65104;52.994;6.552;2022-11-20T02:29:24;101314.75;;;-0.90;85.56
76297;BME280;65104;52.994;6.552;2022-11-20T02:31:51;101316.06;;;-0.83;85.17
76297;BME280;65104;52.994;6.552;2022-11-20T02:34:17;101318.03;;;-0.91;86.21
76297;BME280;65104;52.994;6.552;2022-11-20T02:36:44;101306.31;;;-0.90;85.00
76297;BME280;65104;52.994;6.552;2022-11-20T02:39:11;101309.28;;;-0.84;85.08
76297;BME280;65104;52.994;6.552;2022-11-20T02:41:38;101307.75;;;-0.82;84.11
76297;BME280;65104;52.994;6.552;2022-11-20T02:44:05;101297.31;;;-0.75;84.17
76297;BME280;65104;52.994;6.552;2022-11-20T02:46:31;101286.88;;;-0.80;85.23
76297;BME280;65104;52.994;6.552;2022-11-20T02:48:56;101284.38;;;-0.80;84.89
76297;BME280;65104;52.994;6.552;2022-11-20T02:51:22;101285.78;;;-0.71;84.36
76297;BME280;65104;52.994;6.552;2022-11-20T02:53:48;101287.69;;;-0.81;84.36
76297;BME280;65104;52.994;6.552;2022-11-20T02:56:13;101291.69;;;-0.71;83.63
76297;BME280;65104;52.994;6.552;2022-11-20T02:58:39;101279.44;;;-0.78;83.80
76297;BME280;65104;52.994;6.552;2022-11-20T03:01:04;101285.25;;;-0.79;84.33
76297;BME280;65104;52.994;6.552;2022-11-20T03:03:29;101280.41;;;-0.64;83.62
76297;BME280;65104;52.994;6.552;2022-11-20T03:05:55;101270.22;;;-0.66;83.64
76297;BME280;65104;52.994;6.552;2022-11-20T03:08:20;101269.22;;;-0.68;83.82
76297;BME280;65104;52.994;6.552;2022-11-20T03:10:45;101267.16;;;-0.73;83.78
76297;BME280;65104;52.994;6.552;2022-11-20T03:13:11;101272.56;;;-0.81;84.14
76297;BME280;65104;52.994;6.552;2022-11-20T03:15:37;101262.91;;;-0.74;83.92
76297;BME280;65104;52.994;6.552;2022-11-20T03:18:03;101258.03;;;-0.71;84.27
76297;BME280;65104;52.994;6.552;2022-11-20T03:20:28;101263.19;;;-0.70;83.92
76297;BME280;65104;52.994;6.552;2022-11-20T03:22:54;101270.34;;;-0.64;83.41
76297;BME280;65104;52.994;6.552;2022-11-20T03:25:20;101269.56;;;-0.75;83.81
76297;BME280;65104;52.994;6.552;2022-11-20T03:27:46;101272.16;;;-0.62;83.63
76297;BME280;65104;52.994;6.552;2022-11-20T03:30:12;101265.19;;;-0.66;83.95
76297;BME280;65104;52.994;6.552;2022-11-20T03:32:37;101266.16;;;-0.64;83.59
76297;BME280;65104;52.994;6.552;2022-11-20T03:35:03;101257.25;;;-0.59;83.47
76297;BME280;65104;52.994;6.552;2022-11-20T03:37:29;101254.22;;;-0.66;82.95
76297;BME280;65104;52.994;6.552;2022-11-20T03:39:54;101249.22;;;-0.53;82.10
76297;BME280;65104;52.994;6.552;2022-11-20T03:42:19;101243.66;;;-0.61;83.42
76297;BME280;65104;52.994;6.552;2022-11-20T03:45:04;101244.00;;;-0.68;82.48
76297;BME280;65104;52.994;6.552;2022-11-20T03:47:29;101252.69;;;-0.64;83.10
76297;BME280;65104;52.994;6.552;2022-11-20T03:49:55;101244.75;;;-0.57;82.72
76297;BME280;65104;52.994;6.552;2022-11-20T03:52:20;101239.97;;;-0.66;82.41
76297;BME280;65104;52.994;6.552;2022-11-20T03:54:45;101240.81;;;-0.54;82.25
76297;BME280;65104;52.994;6.552;2022-11-20T03:57:11;101240.72;;;-0.55;83.11
76297;BME280;65104;52.994;6.552;2022-11-20T03:59:36;101232.31;;;-0.43;82.35
76297;BME280;65104;52.994;6.552;2022-11-20T04:02:01;101238.13;;;-0.44;83.02
76297;BME280;65104;52.994;6.552;2022-11-20T04:04:27;101226.28;;;-0.45;82.78
76297;BME280;65104;52.994;6.552;2022-11-20T04:06:52;101232.56;;;-0.51;81.85
76297;BME280;65104;52.994;6.552;2022-11-20T04:09:17;101219.44;;;-0.59;82.54
76297;BME280;65104;52.994;6.552;2022-11-20T04:11:43;101221.97;;;-0.59;82.59
76297;BME280;65104;52.994;6.552;2022-11-20T04:14:14;101222.47;;;-0.51;82.39
76297;BME280;65104;52.994;6.552;2022-11-20T04:16:41;101217.00;;;-0.46;82.33
76297;BME280;65104;52.994;6.552;2022-11-20T04:19:10;101211.09;;;-0.58;82.72
76297;BME280;65104;52.994;6.552;2022-11-20T04:21:36;101210.34;;;-0.57;82.98
76297;BME280;65104;52.994;6.552;2022-11-20T04:24:02;101217.53;;;-0.50;83.09
76297;BME280;65104;52.994;6.552;2022-11-20T04:26:29;101213.84;;;-0.55;82.58
76297;BME280;65104;52.994;6.552;2022-11-20T04:28:55;101207.41;;;-0.63;82.51
76297;BME280;65104;52.994;6.552;2022-11-20T04:31:23;101207.06;;;-0.67;82.62
76297;BME280;65104;52.994;6.552;2022-11-20T04:33:49;101202.41;;;-0.50;82.48
76297;BME280;65104;52.994;6.552;2022-11-20T04:36:17;101194.09;;;-0.60;82.76
76297;BME280;65104;52.994;6.552;2022-11-20T04:38:43;101199.38;;;-0.57;84.07
76297;BME280;65104;52.994;6.552;2022-11-20T04:41:14;101203.31;;;-0.61;84.21
76297;BME280;65104;52.994;6.552;2022-11-20T04:43:40;101196.31;;;-0.65;83.49
76297;BME280;65104;52.994;6.552;2022-11-20T04:46:06;101201.13;;;-0.56;83.68
76297;BME280;65104;52.994;6.552;2022-11-20T04:48:31;101193.44;;;-0.58;83.73
76297;BME280;65104;52.994;6.552;2022-11-20T04:50:56;101200.03;;;-0.60;83.72
76297;BME280;65104;52.994;6.552;2022-11-20T04:53:23;101190.59;;;-0.62;84.13
76297;BME280;65104;52.994;6.552;2022-11-20T04:55:48;101184.91;;;-0.71;83.18
76297;BME280;65104;52.994;6.552;2022-11-20T04:58:14;101186.13;;;-0.66;83.84
76297;BME280;65104;52.994;6.552;2022-11-20T05:00:40;101191.28;;;-0.65;83.60
76297;BME280;65104;52.994;6.552;2022-11-20T05:03:06;101189.94;;;-0.60;82.54
76297;BME280;65104;52.994;6.552;2022-11-20T05:05:33;101198.28;;;-0.61;83.18
76297;BME280;65104;52.994;6.552;2022-11-20T05:07:59;101196.88;;;-0.69;82.54
76297;BME280;65104;52.994;6.552;2022-11-20T05:10:25;101183.38;;;-0.69;82.71
76297;BME280;65104;52.994;6.552;2022-11-20T05:12:51;101177.97;;;-0.62;83.83
76297;BME280;65104;52.994;6.552;2022-11-20T05:15:17;101169.97;;;-0.57;83.28
76297;BME280;65104;52.994;6.552;2022-11-20T05:17:52;101175.47;;;-0.62;83.31
76297;BME280;65104;52.994;6.552;2022-11-20T05:20:18;101177.06;;;-0.76;83.90
76297;BME280;65104;52.994;6.552;2022-11-20T05:22:43;101182.75;;;-0.79;82.63
76297;BME280;65104;52.994;6.552;2022-11-20T05:25:10;101181.75;;;-0.69;83.36
76297;BME280;65104;52.994;6.552;2022-11-20T05:27:35;101178.09;;;-0.61;82.69
76297;BME280;65104;52.994;6.552;2022-11-20T05:30:02;101171.75;;;-0.56;82.74
76297;BME280;65104;52.994;6.552;2022-11-20T05:32:27;101176.16;;;-0.65;83.22
76297;BME280;65104;52.994;6.552;2022-11-20T05:34:53;101175.69;;;-0.59;83.72
76297;BME280;65104;52.994;6.552;2022-11-20T05:37:18;101174.06;;;-0.70;83.54
76297;BME280;65104;52.994;6.552;2022-11-20T05:39:43;101168.94;;;-0.72;83.32
76297;BME280;65104;52.994;6.552;2022-11-20T05:42:09;101172.28;;;-0.60;82.71
76297;BME280;65104;52.994;6.552;2022-11-20T05:44:53;101160.88;;;-0.55;82.45
76297;BME280;65104;52.994;6.552;2022-11-20T05:47:18;101159.78;;;-0.58;83.41
76297;BME280;65104;52.994;6.552;2022-11-20T05:49:44;101160.66;;;-0.58;83.38
76297;BME280;65104;52.994;6.552;2022-11-20T05:52:09;101164.69;;;-0.48;83.07
76297;BME280;65104;52.994;6.552;2022-11-20T05:54:34;101161.94;;;-0.51;82.87
76297;BME280;65104;52.994;6.552;2022-11-20T05:57:00;101159.53;;;-0.50;82.63
76297;BME280;65104;52.994;6.552;2022-11-20T05:59:25;101158.25;;;-0.56;83.32
76297;BME280;65104;52.994;6.552;2022-11-20T06:01:50;101155.22;;;-0.64;84.01
76297;BME280;65104;52.994;6.552;2022-11-20T06:04:16;101160.56;;;-0.59;83.00
76297;BME280;65104;52.994;6.552;2022-11-20T06:06:41;101155.63;;;-0.58;83.69
76297;BME280;65104;52.994;6.552;2022-11-20T06:09:07;101154.84;;;-0.57;83.42
76297;BME280;65104;52.994;6.552;2022-11-20T06:11:32;101159.88;;;-0.57;83.01
76297;BME280;65104;52.994;6.552;2022-11-20T06:13:57;101153.75;;;-0.60;82.49
76297;BME280;65104;52.994;6.552;2022-11-20T06:16:23;101146.19;;;-0.60;83.15
76297;BME280;65104;52.994;6.552;2022-11-20T06:18:48;101152.22;;;-0.58;83.47
76297;BME280;65104;52.994;6.552;2022-11-20T06:21:16;101159.25;;;-0.66;83.02
76297;BME280;65104;52.994;6.552;2022-11-20T06:23:43;101167.25;;;-0.60;83.15
76297;BME280;65104;52.994;6.552;2022-11-20T06:26:17;101169.25;;;-0.67;82.24
76297;BME280;65104;52.994;6.552;2022-11-20T06:28:43;101157.50;;;-0.67;82.91
76297;BME280;65104;52.994;6.552;2022-11-20T06:31:11;101156.84;;;-0.64;82.87
76297;BME280;65104;52.994;6.552;2022-11-20T06:33:36;101155.09;;;-0.65;82.82
76297;BME280;65104;52.994;6.552;2022-11-20T06:36:03;101148.59;;;-0.62;83.25
76297;BME280;65104;52.994;6.552;2022-11-20T06:38:28;101143.25;;;-0.66;82.72
76297;BME280;65104;52.994;6.552;2022-11-20T06:40:54;101148.41;;;-0.65;83.03
76297;BME280;65104;52.994;6.552;2022-11-20T06:43:20;101153.84;;;-0.59;83.31
76297;BME280;65104;52.994;6.552;2022-11-20T06:45:45;101148.81;;;-0.59;82.60
76297;BME280;65104;52.994;6.552;2022-11-20T06:48:10;101145.88;;;-0.65;82.61
76297;BME280;65104;52.994;6.552;2022-11-20T06:50:36;101149.69;;;-0.58;82.45
76297;BME280;65104;52.994;6.552;2022-11-20T06:53:02;101145.53;;;-0.58;83.27
76297;BME280;65104;52.994;6.552;2022-11-20T06:55:28;101144.28;;;-0.51;82.24
76297;BME280;65104;52.994;6.552;2022-11-20T06:57:54;101150.22;;;-0.51;81.73
76297;BME280;65104;52.994;6.552;2022-11-20T07:00:19;101150.78;;;-0.55;81.75
76297;BME280;65104;52.994;6.552;2022-11-20T07:02:45;101149.03;;;-0.56;81.69
76297;BME280;65104;52.994;6.552;2022-11-20T07:05:10;101154.13;;;-0.43;81.78
76297;BME280;65104;52.994;6.552;2022-11-20T07:07:35;101146.66;;;-0.41;81.95
76297;BME280;65104;52.994;6.552;2022-11-20T07:10:01;101150.59;;;-0.45;81.48
76297;BME280;65104;52.994;6.552;2022-11-20T07:12:26;101151.59;;;-0.43;81.21
76297;BME280;65104;52.994;6.552;2022-11-20T07:14:51;101155.75;;;-0.43;81.31
76297;BME280;65104;52.994;6.552;2022-11-20T07:17:17;101149.75;;;-0.45;80.92
76297;BME280;65104;52.994;6.552;2022-11-20T07:19:42;101149.31;;;-0.51;79.93
76297;BME280;65104;52.994;6.552;2022-11-20T07:22:08;101158.19;;;-0.45;79.90
76297;BME280;65104;52.994;6.552;2022-11-20T07:24:33;101153.59;;;-0.50;80.31
76297;BME280;65104;52.994;6.552;2022-11-20T07:27:00;101150.97;;;-0.52;80.35
76297;BME280;65104;52.994;6.552;2022-11-20T07:29:25;101150.22;;;-0.51;80.05
76297;BME280;65104;52.994;6.552;2022-11-20T07:31:50;101142.97;;;-0.46;80.51
76297;BME280;65104;52.994;6.552;2022-11-20T07:34:16;101149.44;;;-0.50;80.29
76297;BME280;65104;52.994;6.552;2022-11-20T07:36:41;101150.22;;;-0.51;80.88
76297;BME280;65104;52.994;6.552;2022-11-20T07:39:06;101146.53;;;-0.43;78.94
76297;BME280;65104;52.994;6.552;2022-11-20T07:41:32;101136.16;;;-0.47;79.41
76297;BME280;65104;52.994;6.552;2022-11-20T07:43:57;101133.75;;;-0.46;80.49
76297;BME280;65104;52.994;6.552;2022-11-20T07:46:22;101131.41;;;-0.43;79.07
76297;BME280;65104;52.994;6.552;2022-11-20T07:48:48;101125.88;;;-0.50;79.19
76297;BME280;65104;52.994;6.552;2022-11-20T07:51:13;101131.78;;;-0.50;78.05
76297;BME280;65104;52.994;6.552;2022-11-20T07:53:39;101130.13;;;-0.49;78.38
76297;BME280;65104;52.994;6.552;2022-11-20T07:56:05;101135.94;;;-0.50;77.68
76297;BME280;65104;52.994;6.552;2022-11-20T07:58:31;101147.53;;;-0.41;77.19
76297;BME280;65104;52.994;6.552;2022-11-20T08:01:02;101151.91;;;-0.38;79.04
76297;BME280;65104;52.994;6.552;2022-11-20T08:03:27;101149.03;;;-0.31;77.95
76297;BME280;65104;52.994;6.552;2022-11-20T08:05:52;101145.94;;;-0.27;77.64
76297;BME280;65104;52.994;6.552;2022-11-20T08:08:18;101147.59;;;-0.27;76.78
76297;BME280;65104;52.994;6.552;2022-11-20T08:10:43;101140.03;;;-0.14;76.61
76297;BME280;65104;52.994;6.552;2022-11-20T08:13:08;101150.72;;;-0.18;76.81
76297;BME280;65104;52.994;6.552;2022-11-20T08:15:52;101152.28;;;-0.20;76.75
76297;BME280;65104;52.994;6.552;2022-11-20T08:18:17;101144.47;;;-0.23;76.90
76297;BME280;65104;52.994;6.552;2022-11-20T08:20:43;101149.38;;;-0.13;78.32
76297;BME280;65104;52.994;6.552;2022-11-20T08:23:09;101148.28;;;-0.17;78.08
76297;BME280;65104;52.994;6.552;2022-11-20T08:25:36;101147.94;;;-0.10;78.21
76297;BME280;65104;52.994;6.552;2022-11-20T08:28:04;101155.03;;;-0.04;78.67
76297;BME280;65104;52.994;6.552;2022-11-20T08:30:30;101158.63;;;-0.01;76.85
76297;BME280;65104;52.994;6.552;2022-11-20T08:33:02;101160.28;;;-0.01;76.52
76297;BME280;65104;52.994;6.552;2022-11-20T08:35:28;101162.22;;;0.03;77.16
76297;BME280;65104;52.994;6.552;2022-11-20T08:37:53;101160.28;;;-0.01;77.13
76297;BME280;65104;52.994;6.552;2022-11-20T08:40:19;101154.34;;;-0.02;77.39
76297;BME280;65104;52.994;6.552;2022-11-20T08:42:48;101149.97;;;-0.04;77.12
76297;BME280;65104;52.994;6.552;2022-11-20T08:45:14;101145.63;;;0.07;76.43
76297;BME280;65104;52.994;6.552;2022-11-20T08:47:40;101152.16;;;0.16;76.58
76297;BME280;65104;52.994;6.552;2022-11-20T08:50:06;101152.53;;;0.22;75.55
76297;BME280;65104;52.994;6.552;2022-11-20T08:52:32;101158.16;;;0.18;76.01
76297;BME280;65104;52.994;6.552;2022-11-20T08:54:57;101161.09;;;0.24;75.31
76297;BME280;65104;52.994;6.552;2022-11-20T08:57:22;101158.75;;;0.14;75.03
76297;BME280;65104;52.994;6.552;2022-11-20T08:59:48;101148.94;;;0.19;76.43
76297;BME280;65104;52.994;6.552;2022-11-20T09:02:14;101136.31;;;0.06;76.28
76297;BME280;65104;52.994;6.552;2022-11-20T09:04:39;101147.22;;;0.18;74.10
76297;BME280;65104;52.994;6.552;2022-11-20T09:07:04;101133.13;;;0.21;73.41
76297;BME280;65104;52.994;6.552;2022-11-20T09:09:30;101140.31;;;0.28;72.87
76297;BME280;65104;52.994;6.552;2022-11-20T09:11:55;101133.50;;;0.27;74.35
76297;BME280;65104;52.994;6.552;2022-11-20T09:14:21;101133.13;;;0.21;75.77
76297;BME280;65104;52.994;6.552;2022-11-20T09:16:46;101130.19;;;0.28;74.18
76297;BME280;65104;52.994;6.552;2022-11-20T09:19:14;101127.31;;;0.35;73.78
76297;BME280;65104;52.994;6.552;2022-11-20T09:21:42;101136.03;;;0.41;73.54
76297;BME280;65104;52.994;6.552;2022-11-20T09:24:07;101130.59;;;0.34;73.40
76297;BME280;65104;52.994;6.552;2022-11-20T09:26:33;101123.81;;;0.33;73.19
76297;BME280;65104;52.994;6.552;2022-11-20T09:28:58;101122.91;;;0.46;73.32
76297;BME280;65104;52.994;6.552;2022-11-20T09:31:24;101122.13;;;0.47;72.38
76297;BME280;65104;52.994;6.552;2022-11-20T09:33:51;101126.31;;;0.47;71.84
76297;BME280;65104;52.994;6.552;2022-11-20T09:36:16;101126.72;;;0.40;72.58
76297;BME280;65104;52.994;6.552;2022-11-20T09:38:46;101123.63;;;0.44;71.88
76297;BME280;65104;52.994;6.552;2022-11-20T09:44:01;101125.38;;;0.45;72.23
76297;BME280;65104;52.994;6.552;2022-11-20T09:46:53;101115.34;;;0.46;72.58
76297;BME280;65104;52.994;6.552;2022-11-20T09:52:14;101128.97;;;0.61;70.10
76297;BME280;65104;52.994;6.552;2022-11-20T09:54:42;101119.13;;;0.66;71.35
76297;BME280;65104;52.994;6.552;2022-11-20T09:57:12;101131.66;;;0.64;70.91
76297;BME280;65104;52.994;6.552;2022-11-20T09:59:50;101120.94;;;0.82;71.07
76297;BME280;65104;52.994;6.552;2022-11-20T10:02:28;101118.34;;;0.80;69.32
76297;BME280;65104;52.994;6.552;2022-11-20T10:05:11;101113.44;;;0.83;70.40
76297;BME280;65104;52.994;6.552;2022-11-20T10:07:46;101112.56;;;0.96;71.47
76297;BME280;65104;52.994;6.552;2022-11-20T10:10:23;101110.50;;;1.03;70.36
76297;BME280;65104;52.994;6.552;2022-11-20T10:15:49;101111.00;;;1.26;69.55
76297;BME280;65104;52.994;6.552;2022-11-20T10:18:44;101107.63;;;1.25;70.09
76297;BME280;65104;52.994;6.552;2022-11-20T10:31:38;101084.09;;;1.41;69.08
76297;BME280;65104;52.994;6.552;2022-11-20T10:34:21;101084.78;;;1.53;71.96
76297;BME280;65104;52.994;6.552;2022-11-20T10:36:54;101079.69;;;1.52;70.10
76297;BME280;65104;52.994;6.552;2022-11-20T10:39:28;101066.50;;;1.57;70.07
76297;BME280;65104;52.994;6.552;2022-11-20T10:41:56;101071.91;;;1.63;70.72
76297;BME280;65104;52.994;6.552;2022-11-20T10:44:26;101064.50;;;1.66;68.07
76297;BME280;65104;52.994;6.552;2022-11-20T10:47:16;101062.56;;;1.62;67.75
76297;BME280;65104;52.994;6.552;2022-11-20T10:49:46;101074.09;;;1.57;68.58
76297;BME280;65104;52.994;6.552;2022-11-20T10:57:52;101052.72;;;1.52;67.78
76297;BME280;65104;52.994;6.552;2022-11-20T11:00:20;101043.81;;;1.59;68.37
76297;BME280;65104;52.994;6.552;2022-11-20T11:02:50;101042.16;;;1.59;68.41
76297;BME280;65104;52.994;6.552;2022-11-20T11:07:42;101039.78;;;1.77;68.18
76297;BME280;65104;52.994;6.552;2022-11-20T11:10:19;101038.38;;;1.82;69.10
76297;BME280;65104;52.994;6.552;2022-11-20T11:12:47;101031.72;;;1.99;67.88
76297;BME280;65104;52.994;6.552;2022-11-20T11:15:40;101022.56;;;2.01;67.80
76297;BME280;65104;52.994;6.552;2022-11-20T11:18:09;101027.63;;;2.01;66.35
76297;BME280;65104;52.994;6.552;2022-11-20T11:20:35;101024.13;;;1.99;67.30
76297;BME280;65104;52.994;6.552;2022-11-20T11:23:01;101033.75;;;2.04;66.99
76297;BME280;65104;52.994;6.552;2022-11-20T11:25:35;101030.34;;;2.04;65.27
76297;BME280;65104;52.994;6.552;2022-11-20T11:28:24;101032.50;;;2.12;66.36
76297;BME280;65104;52.994;6.552;2022-11-20T11:30:51;101030.41;;;2.20;67.16
76297;BME280;65104;52.994;6.552;2022-11-20T11:33:28;101020.94;;;2.32;65.72
76297;BME280;65104;52.994;6.552;2022-11-20T11:35:56;101027.31;;;2.40;63.75
76297;BME280;65104;52.994;6.552;2022-11-20T11:38:44;101014.75;;;2.27;63.92
76297;BME280;65104;52.994;6.552;2022-11-20T11:41:35;101007.06;;;2.42;65.60
76297;BME280;65104;52.994;6.552;2022-11-20T11:44:19;100996.53;;;2.34;62.78
76297;BME280;65104;52.994;6.552;2022-11-20T11:47:05;101000.13;;;2.38;61.72
76297;BME280;65104;52.994;6.552;2022-11-20T11:49:34;100993.09;;;2.48;61.96
76297;BME280;65104;52.994;6.552;2022-11-20T11:52:04;100987.56;;;2.55;62.51
76297;BME280;65104;52.994;6.552;2022-11-20T11:55:00;100984.88;;;2.85;62.27
76297;BME280;65104;52.994;6.552;2022-11-20T12:00:21;100964.34;;;3.47;58.59
76297;BME280;65104;52.994;6.552;2022-11-20T12:05:39;100937.78;;;4.30;57.17
76297;BME280;65104;52.994;6.552;2022-11-20T12:08:11;100947.81;;;4.64;55.20
76297;BME280;65104;52.994;6.552;2022-11-20T12:16:00;100937.81;;;5.70;55.00
76297;BME280;65104;52.994;6.552;2022-11-20T12:18:27;100929.94;;;5.63;52.81
76297;BME280;65104;52.994;6.552;2022-11-20T12:21:17;100940.38;;;5.49;52.23
76297;BME280;65104;52.994;6.552;2022-11-20T12:34:59;100935.75;;;3.51;59.24
76297;BME280;65104;52.994;6.552;2022-11-20T12:37:52;100941.84;;;3.36;60.44
76297;BME280;65104;52.994;6.552;2022-11-20T12:48:42;100913.19;;;4.29;59.19
76297;BME280;65104;52.994;6.552;2022-11-20T12:51:24;100908.56;;;4.98;57.59
76297;BME280;65104;52.994;6.552;2022-11-20T12:54:22;100899.13;;;5.57;55.71
76297;BME280;65104;52.994;6.552;2022-11-20T12:57:13;100879.53;;;5.34;55.87
76297;BME280;65104;52.994;6.552;2022-11-20T13:07:53;100878.75;;;4.36;54.71
76297;BME280;65104;52.994;6.552;2022-11-20T13:16:04;100867.84;;;3.82;55.23
76297;BME280;65104;52.994;6.552;2022-11-20T13:18:38;100866.09;;;3.81;55.12
76297;BME280;65104;52.994;6.552;2022-11-20T13:21:41;100856.50;;;3.93;57.72
76297;BME280;65104;52.994;6.552;2022-11-20T13:26:45;100844.22;;;4.22;55.93
76297;BME280;65104;52.994;6.552;2022-11-20T13:29:16;100847.69;;;4.04;55.89
76297;BME280;65104;52.994;6.552;2022-11-20T13:31:48;100840.63;;;3.80;56.63
76297;BME280;65104;52.994;6.552;2022-11-20T13:34:24;100847.19;;;3.74;56.68
76297;BME280;65104;52.994;6.552;2022-11-20T13:36:52;100838.63;;;3.55;57.54
76297;BME280;65104;52.994;6.552;2022-11-20T13:39:35;100838.06;;;3.43;57.86
76297;BME280;65104;52.994;6.552;2022-11-20T13:44:42;100835.16;;;3.17;58.70
76297;BME280;65104;52.994;6.552;2022-11-20T13:47:26;100826.81;;;3.02;58.73
76297;BME280;65104;52.994;6.552;2022-11-20T13:49:53;100830.13;;;3.01;57.56
76297;BME280;65104;52.994;6.552;2022-11-20T14:01:05;100818.56;;;2.72;59.61
76297;BME280;65104;52.994;6.552;2022-11-20T14:03:34;100817.16;;;2.61;59.28
76297;BME280;65104;52.994;6.552;2022-11-20T14:06:03;100813.38;;;2.53;60.22
76297;BME280;65104;52.994;6.552;2022-11-20T14:08:39;100810.59;;;2.64;60.30
76297;BME280;65104;52.994;6.552;2022-11-20T14:11:23;100811.50;;;2.49;60.69
76297;BME280;65104;52.994;6.552;2022-11-20T14:16:24;100799.44;;;2.45;61.51
76297;BME280;65104;52.994;6.552;2022-11-20T14:18:50;100789.09;;;2.40;62.32
76297;BME280;65104;52.994;6.552;2022-11-20T14:21:26;100795.16;;;2.44;61.81
76297;BME280;65104;52.994;6.552;2022-11-20T14:24:14;100788.13;;;2.38;60.94
76297;BME280;65104;52.994;6.552;2022-11-20T14:26:42;100780.44;;;2.37;61.60
76297;BME280;65104;52.994;6.552;2022-11-20T14:29:29;100766.59;;;2.46;62.63
76297;BME280;65104;52.994;6.552;2022-11-20T14:31:58;100777.63;;;2.31;62.45